Terminal Aerodrome Forecast
Issued by NWS

Home | Current Version | Previous Version | Text Only | Print | Product List | Glossary On
Versions: 1 2 3 4 5 6 7 8 9 10 11 12 13 14
000
FTUS42 KTBW 231739
TAFRSW
TAF
KRSW 231739Z 2318/2418 16008KT P6SM VCTS SCT040CB BKN080
     FM240100 VRB03KT P6SM FEW030 BKN250
     FM241600 22006KT P6SM FEW025 SCT250=

USA.gov is the U.S. government's official web portal to all federal, state and local government web resources and services.